Highland Center, IA

08:26 PM CDT af September 30, 2016 (GMT -0500)
East | | Change Station

Elev 833 ft 41.03 °N, 92.40 °W | Updated 16 seconds ago

Overcast
farvolknt
61.1 °f
Feels Like 61.1 °f
N
3.0
vint baytevdik vint from tstsmz
Gusts 4.0 mph

haynt
High -- | Low -- °f
--% Chance of Precip.
Yesterday
High -- | Low -- °f
Precip. -- in
druk 30.14 in
zeevdikeyt 10.0 mayln
Clouds Few 2000 ft
farvolknt 2700 ft
toypunkt 54 °f
faykhtkeyt 78%
Rainfall 0.00 in
Snow Depth Not available.
7:05 AM 6:52 PM
New, 0% visible
METAR KOTM 010053Z AUTO 36006KT 10SM FEW020 OVC027 17/13 A3014 RMK AO2 SLP205 T01670128
druk 30.14 in
zeevdikeyt 10.0 mayln
Clouds Few 2000 ft
farvolknt 2700 ft
toypunkt 54 °f
faykhtkeyt 78%
Rainfall 0.00 in
Snow Depth Not available.
7:05 AM 6:52 PM
New, 0% visible
METAR KOTM 010053Z AUTO 36006KT 10SM FEW020 OVC027 17/13 A3014 RMK AO2 SLP205 T01670128

10-Day Weather Forecast

Almanac

Astronomy

Sep. 30, 2016 Rise Set
Actual Time
Civil Twilight
Nautical Twilight
Astronomical Twilight
Moon
Length Of Visible Light
Length of Day
Tomorrow will be .
, % of the Moon is Illuminated

Today's Extremes

State Highs State Lows

Community

WunderPhotos

Upload Photos

1,942,829 photos uploaded!

WunderBlog® & News

Nearby

Air Quality

  Air Quality AQ Index Pollutant
Not available.

Snow Depth

Station Depth Elevation

Earthquake Activity

City Distance Mag. Time & Date
Minimum magnitude displayed is 2.5.

Coastal Water Temperatures

plats temperatur

Stations

Nearby Weather Stations

Station Location Temp vintkelt toypunkt faykhtkeyt vint Precip. Elev dertsaytikt Type
                   

Watches & Warnings

There are currently no watches in effect.